Time;durP1;ratioP1;P1;durP2;ratioP2;P2;SDS_P1;SDS_P2;PMS_P1;PMS_P2;Temp;Humidity;BMP_temperature;BMP_pressure;BME280_temperature;BME280_humidity;BME280_pressure;Samples;Min_cycle;Max_cycle;Signal;HPM_P1;HPM_P2
2022/08/20 00:01:24;;;;;;;18.45;16.63;;;17.30;99.90;;;;;;4997204;28;20088;-61
2022/08/20 00:03:50;;;;;;;17.85;16.15;;;17.20;99.90;;;;;;4997140;28;20031;-61
2022/08/20 00:06:19;;;;;;;18.77;16.98;;;17.20;99.90;;;;;;5001831;28;20064;-61
2022/08/20 00:08:45;;;;;;;18.75;16.92;;;17.20;99.90;;;;;;4998391;28;20022;-62
2022/08/20 00:11:14;;;;;;;19.15;17.05;;;17.20;99.90;;;;;;4999180;28;20126;-61
2022/08/20 00:13:44;;;;;;;20.02;17.95;;;17.10;99.90;;;;;;4996483;28;20018;-62
2022/08/20 00:16:12;;;;;;;18.35;16.70;;;17.10;99.90;;;;;;5003042;28;20037;-61
2022/08/20 00:18:38;;;;;;;19.70;17.20;;;17.10;99.90;;;;;;5001079;28;20030;-61
2022/08/20 00:21:09;;;;;;;20.13;17.80;;;17.10;99.90;;;;;;5000975;28;20038;-61
2022/08/20 00:23:40;;;;;;;18.25;16.50;;;17.10;99.90;;;;;;4997582;28;20093;-62
2022/08/20 00:26:07;;;;;;;19.35;17.45;;;17.10;99.90;;;;;;4997763;28;20026;-62
2022/08/20 00:28:33;;;;;;;20.75;18.27;;;17.10;99.90;;;;;;5002989;28;20153;-61
2022/08/20 00:30:58;;;;;;;19.13;17.52;;;17.10;99.90;;;;;;5000391;28;20109;-62
2022/08/20 00:33:24;;;;;;;18.85;16.90;;;17.00;99.90;;;;;;4999291;28;20152;-61
2022/08/20 00:36:05;;;;;;;18.30;16.73;;;17.00;99.90;;;;;;4994574;28;20173;-62
2022/08/20 00:38:33;;;;;;;20.27;18.33;;;17.00;99.90;;;;;;4981887;28;20151;-61
2022/08/20 00:40:59;;;;;;;19.70;17.60;;;17.00;99.90;;;;;;4996097;28;20059;-63
2022/08/20 00:43:31;;;;;;;24.63;17.92;;;17.00;99.90;;;;;;5000810;28;20132;-61
2022/08/20 00:45:59;;;;;;;23.65;18.42;;;17.00;99.90;;;;;;4998828;28;20038;-62
2022/08/20 00:48:29;;;;;;;20.98;17.80;;;17.00;99.90;;;;;;4999443;28;20026;-63
2022/08/20 00:51:04;;;;;;;29.83;18.70;;;16.90;99.90;;;;;;4995674;28;20022;-63
2022/08/20 00:53:31;;;;;;;20.98;19.05;;;17.00;99.90;;;;;;4997421;28;20506;-61
2022/08/20 00:55:57;;;;;;;20.27;17.77;;;16.90;99.90;;;;;;5000445;28;20073;-61
2022/08/20 00:58:23;;;;;;;20.25;17.30;;;17.00;99.90;;;;;;4998700;28;20065;-61
2022/08/20 01:00:49;;;;;;;19.75;17.70;;;16.90;99.90;;;;;;4994322;28;20030;-63
2022/08/20 01:03:19;;;;;;;20.48;17.92;;;16.90;99.90;;;;;;4997756;28;20042;-61
2022/08/20 01:05:47;;;;;;;22.88;18.63;;;16.90;99.90;;;;;;4998861;28;20030;-65
2022/08/20 01:08:16;;;;;;;18.25;16.42;;;16.90;99.90;;;;;;5000464;28;20045;-63
2022/08/20 01:10:47;;;;;;;20.08;17.98;;;16.80;99.90;;;;;;5000197;28;20039;-62
2022/08/20 01:13:19;;;;;;;18.90;17.00;;;16.90;99.90;;;;;;4992846;28;20033;-61
2022/08/20 01:15:47;;;;;;;20.17;17.80;;;16.80;99.90;;;;;;4997054;28;20030;-61
2022/08/20 01:18:17;;;;;;;19.30;17.35;;;16.80;99.90;;;;;;5000880;28;20026;-62
2022/08/20 01:20:48;;;;;;;20.25;18.20;;;16.80;99.90;;;;;;5000250;28;20026;-63
2022/08/20 01:23:40;;;;;;;20.58;18.30;;;16.80;99.90;;;;;;4999373;28;20037;-61
2022/08/20 01:26:05;;;;;;;19.05;17.08;;;16.80;99.90;;;;;;4999471;28;20026;-61
2022/08/20 01:29:00;;;;;;;26.23;19.30;;;16.80;99.90;;;;;;4997748;28;20359;-61
2022/08/20 01:31:28;;;;;;;20.20;18.33;;;16.80;99.90;;;;;;4995676;28;20113;-61
2022/08/20 01:33:55;;;;;;;19.65;17.88;;;16.80;99.90;;;;;;4996999;28;20422;-61
2022/08/20 01:36:25;;;;;;;19.45;17.27;;;16.90;99.90;;;;;;4999718;28;20025;-61
2022/08/20 01:38:50;;;;;;;19.23;17.35;;;16.80;99.90;;;;;;4994524;28;20023;-64
2022/08/20 01:41:50;;;;;;;20.67;17.30;;;16.90;99.90;;;;;;4995205;28;20140;-61
2022/08/20 01:44:17;;;;;;;19.33;17.33;;;16.90;99.90;;;;;;5000928;28;20030;-61
2022/08/20 01:46:45;;;;;;;19.05;17.42;;;16.90;99.90;;;;;;4997659;28;20035;-61
2022/08/20 01:49:15;;;;;;;18.90;17.23;;;16.80;99.90;;;;;;4999843;28;20022;-61
2022/08/20 01:51:42;;;;;;;17.93;16.30;;;16.80;99.90;;;;;;5001752;28;20124;-61
2022/08/20 01:54:08;;;;;;;17.80;16.23;;;16.80;99.90;;;;;;4995816;28;20496;-61
2022/08/20 01:56:35;;;;;;;17.70;16.20;;;16.80;99.90;;;;;;4997984;28;20019;-62
2022/08/20 01:59:07;;;;;;;18.23;16.35;;;16.80;99.90;;;;;;4996782;28;20038;-63
2022/08/20 02:01:39;;;;;;;17.77;16.15;;;16.90;99.90;;;;;;4999061;28;20405;-61
2022/08/20 02:04:08;;;;;;;16.75;15.45;;;16.90;99.90;;;;;;4994691;28;20552;-63
2022/08/20 02:06:39;;;;;;;16.98;15.43;;;16.90;99.90;;;;;;4994365;28;20069;-61
2022/08/20 02:09:06;;;;;;;17.58;16.00;;;16.90;99.90;;;;;;4997134;28;20383;-65
2022/08/20 02:11:33;;;;;;;18.02;16.52;;;16.90;99.90;;;;;;4997672;28;20018;-65
2022/08/20 02:14:00;;;;;;;21.48;18.17;;;16.90;99.90;;;;;;4995952;28;20114;-61
2022/08/20 02:16:29;;;;;;;18.75;17.13;;;16.90;99.90;;;;;;4995764;28;20394;-61
2022/08/20 02:18:59;;;;;;;20.35;17.60;;;16.80;99.90;;;;;;5000268;28;20058;-61
2022/08/20 02:21:29;;;;;;;19.80;17.88;;;16.90;99.90;;;;;;4996305;28;20034;-61
2022/08/20 02:23:55;;;;;;;18.08;16.50;;;16.90;99.90;;;;;;4999404;28;20030;-63
2022/08/20 02:26:21;;;;;;;16.10;14.80;;;16.90;99.90;;;;;;4973398;28;20039;-64
2022/08/20 02:28:49;;;;;;;19.80;17.73;;;16.90;99.90;;;;;;4992593;28;20551;-62
2022/08/20 02:31:17;;;;;;;17.60;15.95;;;16.90;99.90;;;;;;4996259;28;20034;-64
2022/08/20 02:33:44;;;;;;;19.20;17.27;;;16.90;99.90;;;;;;5002205;28;20551;-64
2022/08/20 02:36:11;;;;;;;16.20;14.90;;;16.90;99.90;;;;;;4998421;28;20041;-61
2022/08/20 02:38:38;;;;;;;19.15;17.20;;;16.90;99.90;;;;;;4997619;28;20033;-61
2022/08/20 02:41:04;;;;;;;18.70;16.73;;;16.90;99.90;;;;;;4993234;28;20100;-62
2022/08/20 02:43:30;;;;;;;20.33;18.00;;;16.90;99.90;;;;;;4994615;28;20118;-61
2022/08/20 02:45:58;;;;;;;19.38;17.70;;;16.90;99.90;;;;;;4997327;28;20925;-61
2022/08/20 02:48:24;;;;;;;19.52;17.83;;;16.90;99.90;;;;;;4996999;28;20452;-65
2022/08/20 02:50:53;;;;;;;19.60;17.92;;;16.90;99.90;;;;;;4998026;28;20049;-65
2022/08/20 02:53:21;;;;;;;19.98;18.20;;;16.90;99.90;;;;;;4979852;28;20129;-61
2022/08/20 02:55:47;;;;;;;20.65;18.45;;;16.90;99.90;;;;;;4993498;28;20038;-62
2022/08/20 02:58:13;;;;;;;18.48;16.77;;;16.90;99.90;;;;;;4993113;28;20218;-63
2022/08/20 03:00:39;;;;;;;19.55;17.67;;;16.90;99.90;;;;;;4997449;28;20401;-61
2022/08/20 03:03:07;;;;;;;16.67;15.35;;;16.90;99.90;;;;;;4999536;28;20026;-62
2022/08/20 03:05:34;;;;;;;18.88;15.98;;;16.90;99.90;;;;;;4996161;28;20014;-61
2022/08/20 03:07:59;;;;;;;18.23;16.63;;;16.90;99.90;;;;;;4997451;28;20073;-61
2022/08/20 03:10:30;;;;;;;17.38;15.77;;;16.90;99.90;;;;;;4998529;28;20030;-61
2022/08/20 03:12:58;;;;;;;17.80;16.08;;;17.00;99.90;;;;;;4995953;28;20026;-62
2022/08/20 03:15:24;;;;;;;17.15;15.73;;;16.90;99.90;;;;;;4995210;28;20061;-61
2022/08/20 03:17:50;;;;;;;18.75;17.15;;;16.90;99.90;;;;;;4994055;28;20051;-61
2022/08/20 03:20:16;;;;;;;19.45;17.70;;;16.90;99.90;;;;;;4980519;28;20034;-62
2022/08/20 03:22:41;;;;;;;19.17;17.35;;;16.90;99.90;;;;;;5000119;28;20562;-61
2022/08/20 03:25:08;;;;;;;17.17;15.60;;;16.90;99.90;;;;;;4998840;28;20076;-62
2022/08/20 03:27:34;;;;;;;19.98;18.10;;;16.90;99.90;;;;;;4993939;28;20026;-61
2022/08/20 03:30:00;;;;;;;17.38;15.98;;;16.90;99.90;;;;;;4993880;28;20026;-62
2022/08/20 03:32:25;;;;;;;18.02;16.27;;;16.90;99.90;;;;;;4997479;28;20022;-62
2022/08/20 03:34:51;;;;;;;16.92;15.35;;;16.90;99.90;;;;;;4997869;28;20053;-61
2022/08/20 03:37:17;;;;;;;18.38;16.65;;;16.90;99.90;;;;;;5003723;28;20105;-61
2022/08/20 03:39:43;;;;;;;20.00;17.90;;;16.90;99.90;;;;;;5000633;28;20026;-61
2022/08/20 03:42:08;;;;;;;19.38;17.42;;;17.00;99.90;;;;;;4998266;28;20038;-61
2022/08/20 03:44:35;;;;;;;18.95;17.15;;;16.90;99.90;;;;;;4995028;28;20033;-64
2022/08/20 03:47:06;;;;;;;17.73;16.10;;;17.00;99.90;;;;;;4998356;28;20629;-61
2022/08/20 03:49:32;;;;;;;;;;;17.00;99.90;;;;;;5002935;28;20026;-61
2022/08/20 03:51:58;;;;;;;20.27;18.38;;;17.00;99.90;;;;;;5001778;28;20009;-61
2022/08/20 03:54:24;;;;;;;23.83;17.65;;;17.00;99.90;;;;;;4997631;28;20033;-61
2022/08/20 03:56:50;;;;;;;15.30;14.20;;;17.00;99.90;;;;;;4994566;28;20544;-61
2022/08/20 03:59:16;;;;;;;20.08;17.63;;;17.00;99.90;;;;;;4997428;28;20030;-61
2022/08/20 04:01:41;;;;;;;20.70;18.50;;;17.00;99.90;;;;;;5000091;28;20065;-61
2022/08/20 04:04:07;;;;;;;22.67;20.15;;;17.00;99.90;;;;;;5001456;28;20137;-62
2022/08/20 04:06:33;;;;;;;19.77;17.73;;;17.00;99.90;;;;;;5002794;28;20033;-64
2022/08/20 04:08:59;;;;;;;19.95;18.02;;;17.00;99.90;;;;;;5000222;28;20415;-62
2022/08/20 04:11:24;;;;;;;22.05;18.20;;;17.00;99.90;;;;;;5001940;28;20014;-61
2022/08/20 04:13:50;;;;;;;19.50;17.65;;;17.00;99.90;;;;;;5007308;28;20050;-61
2022/08/20 04:16:16;;;;;;;19.50;17.45;;;16.90;99.90;;;;;;5000734;28;20478;-62
2022/08/20 04:18:42;;;;;;;19.60;17.55;;;16.90;99.90;;;;;;4999311;28;20065;-62
2022/08/20 04:21:08;;;;;;;18.45;16.65;;;16.90;99.90;;;;;;4993998;28;20026;-64
2022/08/20 04:23:33;;;;;;;18.95;17.10;;;16.90;99.90;;;;;;5007355;28;20026;-61
2022/08/20 04:26:00;;;;;;;18.33;16.83;;;17.00;99.90;;;;;;4999483;28;20481;-62
2022/08/20 04:28:27;;;;;;;18.45;16.70;;;17.00;99.90;;;;;;5000463;28;20030;-61
2022/08/20 04:30:58;;;;;;;18.67;16.83;;;16.90;99.90;;;;;;4996672;28;20026;-62
2022/08/20 04:33:26;;;;;;;18.90;16.80;;;16.90;99.90;;;;;;4994401;28;20033;-60
2022/08/20 04:35:53;;;;;;;26.15;19.23;;;16.90;99.90;;;;;;4998006;28;20516;-62
2022/08/20 04:38:21;;;;;;;20.92;17.98;;;16.90;99.90;;;;;;5000132;28;20429;-64
2022/08/20 04:40:53;;;;;;;20.65;18.35;;;16.90;99.90;;;;;;5000706;28;20562;-64
2022/08/20 04:43:33;;;;;;;20.45;18.55;;;16.90;99.90;;;;;;4999610;28;20034;-61
2022/08/20 04:46:05;;;;;;;23.85;19.27;;;16.90;99.90;;;;;;4996078;28;20699;-61
2022/08/20 04:48:31;;;;;;;19.67;17.63;;;16.90;99.90;;;;;;5000329;28;20026;-61
2022/08/20 04:50:58;;;;;;;21.58;17.50;;;16.90;99.90;;;;;;4998765;28;20061;-63
2022/08/20 04:53:26;;;;;;;20.58;18.52;;;16.90;99.90;;;;;;4998486;28;20057;-61
2022/08/20 04:55:54;;;;;;;19.20;17.38;;;16.90;99.90;;;;;;4997102;28;20518;-61
2022/08/20 04:58:26;;;;;;;21.92;17.98;;;17.00;99.90;;;;;;4999601;28;20121;-61
2022/08/20 05:00:54;;;;;;;18.70;17.17;;;17.00;99.90;;;;;;4999724;28;20045;-65
2022/08/20 05:03:22;;;;;;;21.10;18.88;;;17.00;99.90;;;;;;4998115;28;20030;-61
2022/08/20 05:05:49;;;;;;;24.17;19.13;;;17.10;99.90;;;;;;4997254;28;20085;-61
2022/08/20 05:08:16;;;;;;;21.77;18.58;;;17.10;99.90;;;;;;4996295;28;20041;-64
2022/08/20 05:10:43;;;;;;;19.65;17.02;;;17.10;99.90;;;;;;4999915;28;20038;-62
2022/08/20 05:13:09;;;;;;;21.05;19.02;;;17.10;99.90;;;;;;5000672;28;20054;-62
2022/08/20 05:15:37;;;;;;;20.10;18.02;;;17.10;99.90;;;;;;4997677;28;20030;-61
2022/08/20 05:18:06;;;;;;;20.45;18.10;;;17.10;99.90;;;;;;4996926;28;20393;-61
2022/08/20 05:20:34;;;;;;;21.08;19.30;;;17.20;99.90;;;;;;4997108;28;20026;-61
2022/08/20 05:23:01;;;;;;;17.52;15.95;;;17.20;99.90;;;;;;4994249;28;20038;-61
2022/08/20 05:25:28;;;;;;;17.05;15.52;;;17.30;99.90;;;;;;4998064;28;20042;-63
2022/08/20 05:28:15;;;;;;;23.00;18.05;;;17.30;99.90;;;;;;4997071;28;20027;-65
2022/08/20 05:30:44;;;;;;;18.75;16.92;;;17.40;99.90;;;;;;4998501;28;20105;-61
2022/08/20 05:33:12;;;;;;;20.00;18.13;;;17.40;99.90;;;;;;5013410;28;20030;-63
2022/08/20 05:35:39;;;;;;;18.95;17.40;;;17.50;99.90;;;;;;5005607;28;20014;-61
2022/08/20 05:38:14;;;;;;;18.80;16.92;;;17.50;99.90;;;;;;4999457;28;20033;-61
2022/08/20 05:40:41;;;;;;;19.48;17.70;;;17.50;99.90;;;;;;4993419;28;20386;-63
2022/08/20 05:43:07;;;;;;;18.65;17.05;;;17.40;99.90;;;;;;4999771;28;20058;-62
2022/08/20 05:45:36;;;;;;;19.05;17.27;;;17.40;99.90;;;;;;4999711;28;20489;-61
2022/08/20 05:48:17;;;;;;;19.23;17.60;;;17.50;99.90;;;;;;4998179;28;20026;-64
2022/08/20 05:50:45;;;;;;;19.33;17.45;;;17.50;99.90;;;;;;4994805;28;20084;-62
2022/08/20 05:53:11;;;;;;;20.92;18.98;;;17.50;99.90;;;;;;4999224;28;20052;-61
2022/08/20 05:55:38;;;;;;;21.63;19.73;;;17.50;99.90;;;;;;5001293;28;20031;-61
2022/08/20 05:58:07;;;;;;;20.65;18.63;;;17.50;99.90;;;;;;4994726;28;20026;-64
2022/08/20 06:00:34;;;;;;;22.15;19.98;;;17.60;99.90;;;;;;4995441;28;20038;-61
2022/08/20 06:05:44;;;;;;;21.10;19.05;;;17.70;99.90;;;;;;4995354;28;20492;-63
2022/08/20 06:08:11;;;;;;;19.63;17.92;;;17.70;99.90;;;;;;4998612;28;20077;-59
2022/08/20 06:10:39;;;;;;;20.38;18.50;;;17.80;99.90;;;;;;4995633;28;20474;-59
2022/08/20 06:13:06;;;;;;;20.05;18.27;;;17.90;99.90;;;;;;4993221;28;20498;-59
2022/08/20 06:15:33;;;;;;;19.35;17.73;;;18.00;99.90;;;;;;4998987;28;20494;-59
2022/08/20 06:17:59;;;;;;;21.55;19.63;;;18.00;99.90;;;;;;5002580;28;20125;-59
2022/08/20 06:20:28;;;;;;;20.00;17.95;;;18.10;99.90;;;;;;4998833;28;20025;-59
2022/08/20 06:22:54;;;;;;;21.02;19.10;;;18.20;99.90;;;;;;4996346;28;20034;-60
2022/08/20 06:25:20;;;;;;;21.00;18.92;;;18.20;99.90;;;;;;4996323;28;20049;-59
2022/08/20 06:27:46;;;;;;;21.75;19.83;;;18.20;99.90;;;;;;4997165;28;20485;-60
2022/08/20 06:30:15;;;;;;;20.85;18.67;;;18.30;99.90;;;;;;4997964;28;20026;-59
2022/08/20 06:32:41;;;;;;;21.40;19.55;;;18.40;99.90;;;;;;5001848;28;20030;-60
2022/08/20 06:35:08;;;;;;;19.55;17.75;;;18.50;99.90;;;;;;5000509;28;20033;-59
2022/08/20 06:37:37;;;;;;;18.55;16.85;;;18.60;99.90;;;;;;4993184;28;20077;-59
2022/08/20 06:40:16;;;;;;;19.17;17.30;;;18.80;99.90;;;;;;4994515;28;20029;-59
2022/08/20 06:42:42;;;;;;;18.63;16.67;;;19.00;99.90;;;;;;5000065;28;20072;-60
2022/08/20 06:45:15;;;;;;;16.58;15.18;;;19.10;99.90;;;;;;5000996;28;20022;-59
2022/08/20 06:47:42;;;;;;;18.02;16.45;;;19.20;99.90;;;;;;5002106;28;20018;-59
2022/08/20 06:50:12;;;;;;;18.90;17.23;;;19.30;99.90;;;;;;5002274;28;20025;-59
2022/08/20 06:52:39;;;;;;;18.70;16.20;;;19.40;99.90;;;;;;5000729;28;20552;-59
2022/08/20 06:55:06;;;;;;;15.65;14.43;;;19.50;99.90;;;;;;4999113;28;20085;-59
2022/08/20 06:57:33;;;;;;;17.90;16.40;;;19.60;99.90;;;;;;4999435;28;20112;-59
2022/08/20 06:59:59;;;;;;;16.88;15.50;;;19.70;99.90;;;;;;4996349;28;20054;-60
2022/08/20 07:02:25;;;;;;;16.95;15.73;;;19.70;99.90;;;;;;4996082;28;20762;-59
2022/08/20 07:04:51;;;;;;;14.45;13.35;;;19.70;99.90;;;;;;4999038;28;20049;-60
2022/08/20 07:07:18;;;;;;;17.27;15.88;;;19.80;99.90;;;;;;4995697;28;20101;-59
2022/08/20 07:09:45;;;;;;;16.90;15.25;;;19.80;99.90;;;;;;5000579;28;20027;-59
2022/08/20 07:12:10;;;;;;;17.83;16.35;;;19.80;99.90;;;;;;5003504;28;20034;-60
2022/08/20 07:14:36;;;;;;;17.52;15.98;;;19.80;99.90;;;;;;5004890;28;20358;-60
2022/08/20 07:17:02;;;;;;;16.40;14.77;;;19.80;99.90;;;;;;4997791;28;20107;-59
2022/08/20 07:19:28;;;;;;;16.48;15.07;;;19.80;99.90;;;;;;5001713;28;20783;-59
2022/08/20 07:21:54;;;;;;;15.38;14.18;;;20.00;99.90;;;;;;5004064;28;20033;-59
2022/08/20 07:24:19;;;;;;;16.15;14.95;;;20.00;99.90;;;;;;4999726;28;20029;-61
2022/08/20 07:26:45;;;;;;;16.92;15.73;;;20.10;99.90;;;;;;5003488;28;20096;-60
2022/08/20 07:29:11;;;;;;;14.93;13.82;;;20.20;99.90;;;;;;5002691;28;20030;-59
2022/08/20 07:34:20;;;;;;;14.52;13.35;;;20.30;99.90;;;;;;4999639;28;20033;-59
2022/08/20 07:36:47;;;;;;;14.23;13.05;;;20.50;99.90;;;;;;4998934;28;21206;-59
2022/08/20 07:39:13;;;;;;;14.65;13.48;;;20.70;99.90;;;;;;5000915;28;20054;-59
2022/08/20 07:41:39;;;;;;;12.63;11.73;;;20.90;99.90;;;;;;4999237;28;20033;-60
2022/08/20 07:44:05;;;;;;;15.07;13.88;;;21.10;99.90;;;;;;5002700;28;20031;-60
2022/08/20 07:46:31;;;;;;;15.02;13.82;;;21.20;99.90;;;;;;5000096;28;20027;-60
2022/08/20 07:48:56;;;;;;;13.90;12.73;;;21.20;99.90;;;;;;4998137;28;20103;-59
2022/08/20 07:51:22;;;;;;;13.20;12.20;;;21.20;99.90;;;;;;4996644;28;20018;-61
2022/08/20 07:53:50;;;;;;;13.20;12.25;;;21.30;99.90;;;;;;4997328;28;20034;-59
2022/08/20 07:56:20;;;;;;;12.85;11.85;;;21.40;99.90;;;;;;5003984;28;20076;-60
2022/08/20 07:58:48;;;;;;;13.20;12.18;;;21.50;99.90;;;;;;4998942;28;20026;-59
2022/08/20 08:01:19;;;;;;;14.93;13.20;;;21.70;99.90;;;;;;4998732;28;20069;-59
2022/08/20 08:03:45;;;;;;;12.85;11.90;;;21.70;99.90;;;;;;4998200;28;20088;-59
2022/08/20 08:06:12;;;;;;;12.43;11.25;;;21.70;99.90;;;;;;4999453;28;20030;-59
2022/08/20 08:08:39;;;;;;;12.27;11.27;;;21.70;99.90;;;;;;4998607;28;20022;-60
2022/08/20 08:11:05;;;;;;;14.55;13.32;;;21.80;99.90;;;;;;4999221;28;20030;-59
2022/08/20 08:13:38;;;;;;;13.82;12.40;;;21.80;99.90;;;;;;5000031;28;20037;-60
2022/08/20 08:16:06;;;;;;;14.30;12.95;;;21.80;99.90;;;;;;5002457;28;20030;-59
2022/08/20 08:18:50;;;;;;;15.85;14.45;;;21.60;99.90;;;;;;4993002;28;20034;-59
2022/08/20 08:21:18;;;;;;;14.88;13.70;;;21.50;99.90;;;;;;4996974;28;20037;-60
2022/08/20 08:23:44;;;;;;;15.00;13.85;;;21.50;99.90;;;;;;5014785;28;20050;-59
2022/08/20 08:26:13;;;;;;;14.30;13.20;;;21.50;99.90;;;;;;5000688;28;20049;-59
2022/08/20 08:28:40;;;;;;;14.00;12.90;;;21.60;99.90;;;;;;5001018;28;20297;-60
2022/08/20 08:31:06;;;;;;;14.70;13.70;;;21.80;99.90;;;;;;4995562;28;20038;-59
2022/08/20 08:33:32;;;;;;;14.13;13.13;;;21.80;99.90;;;;;;4999963;28;20027;-60
2022/08/20 08:36:06;;;;;;;14.10;12.98;;;21.70;99.90;;;;;;4999357;28;20028;-61
2022/08/20 08:38:33;;;;;;;13.50;12.50;;;21.90;99.90;;;;;;5000506;28;20034;-60
2022/08/20 08:41:14;;;;;;;14.30;13.00;;;22.00;99.90;;;;;;4994344;28;20645;-60
2022/08/20 08:43:40;;;;;;;13.50;12.32;;;22.10;99.90;;;;;;4996358;28;20034;-59
2022/08/20 08:46:10;;;;;;;13.77;12.77;;;22.30;99.90;;;;;;4999849;28;20108;-59
2022/08/20 08:48:42;;;;;;;13.98;12.98;;;22.50;99.90;;;;;;4998773;28;20114;-60
2022/08/20 08:51:11;;;;;;;14.35;13.25;;;22.60;99.90;;;;;;5000969;28;20250;-60
2022/08/20 08:53:42;;;;;;;13.13;12.18;;;22.70;99.90;;;;;;4996527;28;20084;-59
2022/08/20 08:56:09;;;;;;;12.77;11.90;;;22.90;99.90;;;;;;4993056;28;20113;-59
2022/08/20 08:58:35;;;;;;;13.05;12.15;;;23.00;99.90;;;;;;5001902;28;20057;-60
2022/08/20 09:01:11;;;;;;;14.25;13.25;;;23.00;99.90;;;;;;4997277;28;20038;-60
2022/08/20 09:03:38;;;;;;;13.63;12.55;;;23.10;99.90;;;;;;4997504;28;20022;-59
2022/08/20 09:06:06;;;;;;;15.25;14.25;;;23.20;99.90;;;;;;4996192;28;20030;-57
2022/08/20 09:08:44;;;;;;;12.75;11.70;;;23.30;99.90;;;;;;4993218;28;20022;-57
2022/08/20 09:11:10;;;;;;;12.82;11.80;;;23.40;99.90;;;;;;5000610;28;20037;-57
2022/08/20 09:13:36;;;;;;;13.52;12.32;;;23.50;99.90;;;;;;5002061;28;20030;-57
2022/08/20 09:16:01;;;;;;;13.15;12.15;;;23.50;99.90;;;;;;4998765;28;20046;-57
2022/08/20 09:18:27;;;;;;;12.00;11.20;;;23.70;99.90;;;;;;4996159;28;20038;-57
2022/08/20 09:20:53;;;;;;;13.00;12.10;;;23.90;99.90;;;;;;4991034;28;20040;-57
2022/08/20 09:23:18;;;;;;;12.90;12.00;;;24.00;99.90;;;;;;5007327;28;20033;-57
2022/08/20 09:25:44;;;;;;;12.93;11.90;;;24.10;99.90;;;;;;5002391;28;20033;-57
2022/08/20 09:28:10;;;;;;;12.80;11.70;;;24.20;99.90;;;;;;4999862;28;20077;-57
2022/08/20 09:30:35;;;;;;;13.18;11.95;;;24.30;99.90;;;;;;4996267;28;20034;-57
2022/08/20 09:33:01;;;;;;;12.65;11.75;;;24.40;99.90;;;;;;5005173;28;20089;-57
2022/08/20 09:35:28;;;;;;;12.27;11.30;;;24.50;99.90;;;;;;5001894;28;20037;-57
2022/08/20 09:37:54;;;;;;;12.73;11.70;;;24.80;99.90;;;;;;4996928;28;20036;-57
2022/08/20 09:40:21;;;;;;;12.27;11.27;;;25.00;99.90;;;;;;5000077;28;20129;-57
2022/08/20 09:42:46;;;;;;;12.32;11.52;;;25.00;99.90;;;;;;5000710;28;20564;-57
2022/08/20 09:45:13;;;;;;;12.90;12.00;;;25.00;99.90;;;;;;4998088;28;20117;-57
2022/08/20 09:47:39;;;;;;;12.02;10.95;;;25.00;99.90;;;;;;5001061;28;20473;-57
2022/08/20 09:50:06;;;;;;;12.00;11.02;;;25.00;99.90;;;;;;4993563;28;20031;-57
2022/08/20 09:52:35;;;;;;;12.95;12.05;;;25.20;99.90;;;;;;4998557;28;20389;-57
2022/08/20 09:55:16;;;;;;;12.27;11.13;;;25.30;99.90;;;;;;4997119;28;20030;-57
2022/08/20 09:57:42;;;;;;;11.13;10.32;;;25.40;99.90;;;;;;4993933;28;20038;-57
2022/08/20 10:00:11;;;;;;;11.05;10.15;;;25.60;99.90;;;;;;4997286;28;20085;-58
2022/08/20 10:02:37;;;;;;;12.43;11.48;;;25.70;99.90;;;;;;4997724;28;20023;-57
2022/08/20 10:05:03;;;;;;;12.80;11.80;;;25.80;99.90;;;;;;4997274;28;20084;-57
2022/08/20 10:07:29;;;;;;;11.63;10.75;;;25.70;99.90;;;;;;4998593;28;20097;-57
2022/08/20 10:09:55;;;;;;;11.40;10.60;;;25.70;99.90;;;;;;4995111;28;20073;-57
2022/08/20 10:12:21;;;;;;;10.73;9.93;;;25.70;99.90;;;;;;4994848;28;20058;-58
2022/08/20 10:14:46;;;;;;;11.65;10.85;;;25.70;99.90;;;;;;4995772;28;20026;-57
2022/08/20 10:17:12;;;;;;;12.32;11.32;;;25.80;99.90;;;;;;4998534;28;20397;-57
2022/08/20 10:19:38;;;;;;;11.48;10.68;;;25.60;99.90;;;;;;4998968;28;20041;-57
2022/08/20 10:22:04;;;;;;;13.95;11.02;;;25.60;99.90;;;;;;4993115;28;20038;-57
2022/08/20 10:24:30;;;;;;;10.23;9.52;;;25.60;99.90;;;;;;4996292;28;20049;-57
2022/08/20 10:26:58;;;;;;;10.88;10.13;;;25.60;99.90;;;;;;5000258;28;20022;-58
2022/08/20 10:29:26;;;;;;;11.23;10.52;;;25.70;99.90;;;;;;5000836;28;20595;-57
2022/08/20 10:31:52;;;;;;;11.80;10.90;;;25.80;99.90;;;;;;4998666;28;20073;-57
2022/08/20 10:34:18;;;;;;;11.48;10.40;;;25.70;99.90;;;;;;4997181;28;20022;-57
2022/08/20 10:36:44;;;;;;;11.70;10.82;;;25.80;99.90;;;;;;4996400;28;20030;-57
2022/08/20 10:39:10;;;;;;;13.20;12.10;;;25.80;99.90;;;;;;5001776;28;20030;-57
2022/08/20 10:41:36;;;;;;;12.82;11.77;;;25.80;99.90;;;;;;4997325;28;20027;-57
2022/08/20 10:44:03;;;;;;;12.43;11.35;;;25.70;99.90;;;;;;5000053;28;20108;-57
2022/08/20 10:46:29;;;;;;;11.85;10.98;;;25.40;99.90;;;;;;4997488;28;20034;-57
2022/08/20 10:48:54;;;;;;;12.90;12.00;;;25.70;99.90;;;;;;4991537;28;20022;-57
2022/08/20 10:51:20;;;;;;;11.32;10.45;;;25.90;99.90;;;;;;4999534;28;20056;-58
2022/08/20 10:53:46;;;;;;;11.82;11.02;;;26.00;99.90;;;;;;4998566;28;20030;-57
2022/08/20 10:56:12;;;;;;;12.90;11.55;;;26.00;99.90;;;;;;4998434;28;20390;-60
2022/08/20 10:58:38;;;;;;;11.63;10.70;;;25.90;99.90;;;;;;5000078;28;20026;-60
2022/08/20 11:01:04;;;;;;;13.48;12.57;;;25.80;99.90;;;;;;4993803;28;20033;-60
2022/08/20 11:03:30;;;;;;;12.80;11.80;;;25.70;99.90;;;;;;4999434;28;20378;-60
2022/08/20 11:05:56;;;;;;;12.82;11.80;;;25.70;99.90;;;;;;4996303;28;20018;-58
2022/08/20 11:08:21;;;;;;;14.15;12.73;;;25.60;99.90;;;;;;5000539;28;20037;-57
2022/08/20 11:10:47;;;;;;;12.80;11.90;;;25.40;99.90;;;;;;5000860;28;20101;-57
2022/08/20 11:13:13;;;;;;;14.95;13.75;;;25.30;99.90;;;;;;4995872;28;20034;-57
2022/08/20 11:15:41;;;;;;;12.60;11.70;;;25.20;99.90;;;;;;4997456;28;20030;-57
2022/08/20 11:18:07;;;;;;;13.20;12.10;;;25.40;99.90;;;;;;4999450;28;20610;-57
2022/08/20 11:20:33;;;;;;;13.90;12.35;;;25.40;99.90;;;;;;4995704;28;20030;-57
2022/08/20 11:22:59;;;;;;;11.48;10.68;;;25.50;99.90;;;;;;4994266;28;20116;-58
2022/08/20 11:25:26;;;;;;;12.18;11.15;;;25.60;99.90;;;;;;4994796;28;20117;-57
2022/08/20 11:27:53;;;;;;;11.82;10.93;;;25.90;99.90;;;;;;4998244;28;20417;-57
2022/08/20 11:30:31;;;;;;;12.30;11.30;;;26.00;99.90;;;;;;4996439;28;20033;-57
2022/08/20 11:32:58;;;;;;;13.18;12.18;;;26.50;99.90;;;;;;4999631;28;20097;-58
2022/08/20 11:35:26;;;;;;;12.95;11.85;;;26.80;99.90;;;;;;4994268;28;20037;-57
2022/08/20 11:37:54;;;;;;;14.15;13.20;;;27.20;99.90;;;;;;4997615;28;20089;-57
2022/08/20 11:40:20;;;;;;;12.90;12.02;;;27.40;99.90;;;;;;4993941;28;20057;-57
2022/08/20 11:42:46;;;;;;;11.95;11.15;;;27.30;99.90;;;;;;4997558;28;20034;-58
2022/08/20 11:45:13;;;;;;;13.52;12.52;;;27.30;99.90;;;;;;4994078;28;20042;-57
2022/08/20 11:47:39;;;;;;;13.20;12.00;;;27.00;99.90;;;;;;4995478;28;20029;-57
2022/08/20 11:50:10;;;;;;;11.90;11.02;;;27.00;99.90;;;;;;4991134;28;20031;-58
2022/08/20 11:52:36;;;;;;;13.75;10.80;;;27.00;99.90;;;;;;4996580;28;20034;-57
2022/08/20 11:55:03;;;;;;;12.65;11.63;;;27.00;99.90;;;;;;4998480;28;20085;-57
2022/08/20 11:57:32;;;;;;;12.07;11.27;;;26.90;99.90;;;;;;5000398;28;20026;-57
2022/08/20 12:00:00;;;;;;;12.43;11.57;;;26.90;99.90;;;;;;4999308;28;20037;-58
2022/08/20 12:02:25;;;;;;;13.60;12.68;;;26.70;99.90;;;;;;5001791;28;20040;-57
2022/08/20 12:04:51;;;;;;;14.27;10.52;;;26.60;99.90;;;;;;5001527;28;20121;-57
2022/08/20 12:07:22;;;;;;;12.10;11.20;;;26.60;99.90;;;;;;4998935;28;20030;-60
2022/08/20 12:09:49;;;;;;;13.07;12.07;;;26.70;99.90;;;;;;5001515;28;20022;-57
2022/08/20 12:12:15;;;;;;;12.40;11.40;;;26.90;99.90;;;;;;4998958;28;20069;-57
2022/08/20 12:14:41;;;;;;;12.15;11.15;;;27.00;99.90;;;;;;4996007;28;20108;-57
2022/08/20 12:17:18;;;;;;;10.50;9.70;;;26.90;99.90;;;;;;5005037;28;20027;-57
2022/08/20 12:19:44;;;;;;;12.23;11.23;;;26.80;99.90;;;;;;4998612;28;20026;-57
2022/08/20 12:22:10;;;;;;;12.60;11.65;;;27.00;99.90;;;;;;5002169;28;20034;-58
2022/08/20 12:24:36;;;;;;;10.43;9.52;;;27.00;99.90;;;;;;5001781;28;20026;-57
2022/08/20 12:27:13;;;;;;;11.63;10.70;;;27.00;99.90;;;;;;5001379;28;20402;-57
2022/08/20 12:29:40;;;;;;;12.35;11.43;;;26.90;99.90;;;;;;4999234;28;20029;-57
2022/08/20 12:32:06;;;;;;;11.30;10.40;;;26.70;99.90;;;;;;4999258;28;20042;-57
2022/08/20 12:34:33;;;;;;;12.90;11.75;;;26.80;99.90;;;;;;5000882;28;20659;-57
2022/08/20 12:37:14;;;;;;;12.63;11.43;;;27.10;99.90;;;;;;4999090;28;20140;-57